PAMD METAR and TAF weather

Enter ICAO airport designator
Station Type Date Time Source
PAMD METAR 2021/09/25 11:51 UTC NOAA

PAMD 251151Z AUTO 19013G18KT 10SM SCT035 06/02 A2964 RMK AO2 SLP023 P0001 60001 70009 T00560017 10067 20056 51010


Station Type Date Time Source
PAMD Decoded METAR 2021/09/25 11:51 UTC NOAA

Middleton Island, Middleton Island Airport, AK, United States (PAMD) 59-26N 146-18W 14M
Sep 25, 2021 - 07:51 AM EDT / 2021.09.25 1151 UTC
Wind: from the S (190 degrees) at 15 MPH (13 KT) gusting to 21 MPH (18 KT):0
Visibility: 10 mile(s):0
Sky conditions: partly cloudy
Precipitation last hour: 0.01 inches
Temperature: 42.1 F (5.6 C)
Dew Point: 35.1 F (1.7 C)
Relative Humidity: 75%
Pressure (altimeter): 29.64 in. Hg (1003 hPa)
Pressure tendency: 0.03 inches (1.0 hPa) higher than three hours ago
ob: PAMD 251151Z AUTO 19013G18KT 10SM SCT035 06/02 A2964 RMK AO2 SLP023 P0001 60001 70009 T00560017 10067 20056 51010
cycle: 12

Station Type Date Time Source
PAMD TAF UTC NOAA

Error!

Example: see airport list